Airfield :
LOGIN :

Register | Disclaimer

   EN    FR    IT 

 










Legend :    VFR   Marginal VFR   IFR   Intensive IFR   Very Intensive IFR
Visi :
Ceiling :
>= 8 km
>= 3000ft
5 to 8 km
1000 to 3000 ft
1500m to 5 km
500 to 1000 ft
800 to 1500m
200 to 500 ft
< 800m
< 200 ft
Symbols :   Thunderstorms  Fog  Heavy snow  Heavy precipitations  Wind > 20 kt
SIGMETs :     Misc.  Thunderstorms  Icing  Turbulence  Mountain Waves  Volcanic Ashes







- Airport Elevation : 160 ft
- IATA code : LRT
- Download approach charts


LFRH - Lorient Lann Bihoue

CURRENT METAR :
  • 181700Z AUTO 17011KT 9999 -RA BKN007/// BKN012/// BKN020/// ///TCU 09/08 Q1011 TEMPO 3000 RA

EXPIRED METARs :
  • 181630Z AUTO 17010KT 3800 +RA BR BKN009/// OVC015/// ///CB 09/08 Q1011 NOSIG
  • 181600Z AUTO 16012KT 9999 4700 BKN012/// OVC018/// ///TCU 09/08 Q1011 TEMPO 3000 RA BKN007TCU OVC015
  • 181530Z AUTO 15013KT 7000 -RA SCT015/// BKN025/// BKN037/// ///CB 08/07 Q1011 TEMPO 3000 RA BKN007TCU OVC015
  • 181500Z AUTO 17015KT 6000 RA BKN015/// BKN024/// OVC034/// ///CB 09/07 Q1012 TEMPO 3000 RA BKN010 OVC018 BECMG 16012G22KT
  • 181430Z AUTO 17016KT 9999 BKN017/// BKN024/// BKN034/// ///TCU 09/06 Q1012 TEMPO 3000 RA BKN010 OVC018 BECMG 16012G22KT

TAF AMD TAF LFRH
Valid from the 18 at 12:00 until the 19 at 12:00 UTC


181128Z 1812/1912 16012G22KT 9999 BKN016 OVC020
TEMPO 1812/1816 5000 -RADZ BKN010 OVC018
TEMPO 1816/1819 3000 RA BKN007TCU OVC015
BECMG 1819/1820 VRB03KT BKN025 BKN060
TEMPO 1823/1912 3000 SHRA BKN020TCU
TEMPO 1903/1910 BKN003 OVC025
No reported NOTAMs for that airfield.



MET'MAP, your aeronautical weather chart ! - Copyright ORBIFLY December 2007 - Disclaimer

ORBIFLY MET'MAP TEAM :

Programming & Development : Alexandra Zaïnal
Concept & Development : Baudouin d'Aumeries
Co-Development & Prog : Marc-Olivier Méhu
Technical & hardware support : Manuel Goepfert

Contact : metmap@orbifly.com




SOURCES & CREDITS :

   NOAA